Nibulon 1 — UUAS4 — position and weather

sailwx.info

Track history (hours):
 
Tides and Currents Weather Stations Pressure Air Temp Water Temp Dewpoint Dewpoint Depression Visibility Wind Speed Wind Dir Waves Ship Positions

Nibulon 1

Last reported at 2018-Apr-23 16:59 UTC. Time now 2018-Apr-24 10:42 UTC.
Position N 47°31' E 034°48'.

Length 38 m; draft 2.6 m.

Type: Tug. MMSI: 272641000.

Date/timePositionNaut miles runAvg speedWind from/ knotsBaromVisibWave heightAir tempDewpointWater temp
2018-Apr-23 16:59N 47°31' E 034°48'2 3.9
2018-Apr-23 16:29N 47°32' E 034°50'7 3.7
2018-Apr-23 14:35N 47°34' E 035°00'0 4.1
2018-Apr-23 14:30N 47°34' E 035°01'2 3.7
2018-Apr-23 14:00N 47°36' E 035°03'2 4.1
2018-Apr-23 13:30N 47°37' E 035°04'2 4.7
2018-Apr-23 13:00N 47°39' E 035°07'2 4.9
2018-Apr-23 12:30N 47°41' E 035°08'2 4.5
2018-Apr-23 12:00N 47°43' E 035°09'2 4.2
2018-Apr-23 11:30N 47°45' E 035°10'2 4.2
2018-Apr-23 11:00N 47°47' E 035°10'1 1.7
2018-Apr-23 10:30N 47°48' E 035°09'0 0.8
2018-Apr-23 10:00N 47°49' E 035°09'3 5.1
2018-Apr-23 09:30N 47°50' E 035°06'2 3.6
2018-Apr-23 09:00N 47°52' E 035°05'0 0.1
2018-Apr-23 08:30N 47°52' E 035°05'1 1.3
2018-Apr-23 08:00N 47°52' E 035°06'0 0.7
2018-Apr-23 07:30N 47°53' E 035°06'1 2.0
2018-Apr-23 07:00N 47°52' E 035°05'0 0.4
2018-Apr-23 06:30N 47°52' E 035°05'0 0.0
2018-Apr-23 06:00N 47°52' E 035°05'0 0.0
2018-Apr-23 05:30N 47°52' E 035°05'2 3.3
2018-Apr-23 04:59N 47°50' E 035°06'1 1.4
2018-Apr-23 04:30N 47°50' E 035°07'2 3.2
2018-Apr-23 04:00N 47°49' E 035°09'0 0.2
2018-Apr-23 03:30N 47°49' E 035°09'2 4.7
2018-Apr-23 03:00N 47°50' E 035°06'2 3.3
2018-Apr-23 02:30N 47°52' E 035°05'0 0.1
2018-Apr-23 02:00N 47°52' E 035°06'0 0.7
2018-Apr-23 01:30N 47°52' E 035°06'1 2.2
2018-Apr-23 01:00N 47°53' E 035°06'1 2.5
2018-Apr-23 00:30N 47°54' E 035°07'2 4.1
2018-Apr-23 00:00N 47°56' E 035°07'2 4.0
2018-Apr-22 23:30N 47°58' E 035°07'2 4.0
2018-Apr-22 22:56N 48°01' E 035°08'  
2018-Apr-19 13:06N 48°04' E 035°05'0 4.2
2018-Apr-19 13:00N 48°03' E 035°06'2 4.1
2018-Apr-19 12:31N 48°02' E 035°08'2 4.3
2018-Apr-19 12:00N 47°60' E 035°08'2 4.5
2018-Apr-19 11:30N 47°58' E 035°07'2 4.4
2018-Apr-19 11:00N 47°55' E 035°07'2 4.3
2018-Apr-19 10:31N 47°53' E 035°06'1 1.0
2018-Apr-19 10:01N 47°53' E 035°06'1 1.7
2018-Apr-19 09:31N 47°52' E 035°06'0 0.6
2018-Apr-19 08:57N 47°52' E 035°05'0 0.4
2018-Apr-19 08:30N 47°52' E 035°05'2 4.5
2018-Apr-19 08:00N 47°50' E 035°07'2 4.6
2018-Apr-19 07:30N 47°48' E 035°10'0 0.0
2018-Apr-19 07:00N 47°48' E 035°10'0 0.0
2018-Apr-19 06:30N 47°48' E 035°10'0 0.0
2018-Apr-19 06:00N 47°48' E 035°10'0 0.0
2018-Apr-19 05:30N 47°48' E 035°10'0 0.0
2018-Apr-19 05:00N 47°48' E 035°10'0 0.0
2018-Apr-19 04:30N 47°48' E 035°10'0 0.5
2018-Apr-19 04:00N 47°48' E 035°10'0 0.6
2018-Apr-19 03:30N 47°48' E 035°10'1 2.4
2018-Apr-19 03:00N 47°47' E 035°09'2 3.9
2018-Apr-19 02:30N 47°45' E 035°10'2 4.1
2018-Apr-19 02:00N 47°43' E 035°09'2 3.8
2018-Apr-19 01:30N 47°41' E 035°08'2 3.5
2018-Apr-19 01:00N 47°40' E 035°07'2 3.2
2018-Apr-19 00:30N 47°38' E 035°06'2 4.0
2018-Apr-19 00:00N 47°37' E 035°03'2 4.2
2018-Apr-18 23:30N 47°35' E 035°02'7 4.3
2018-Apr-18 21:55N 47°33' E 034°53'2 3.9
2018-Apr-18 21:30N 47°32' E 034°51'2 4.4
2018-Apr-18 21:00N 47°31' E 034°48'2 4.5
2018-Apr-18 20:28N 47°31' E 034°44'2 4.7
2018-Apr-18 19:59N 47°32' E 034°41'3 4.6
2018-Apr-18 19:14N 47°34' E 034°36'1 4.6
2018-Apr-18 19:00N 47°34' E 034°35'2 4.6
2018-Apr-18 18:29N 47°35' E 034°31'2 4.3
2018-Apr-18 18:00N 47°34' E 034°28'3 4.4
2018-Apr-18 17:20N 47°33' E 034°25'25 2.1
2018-Apr-18 05:43N 47°17' E 033°57'1 4.6
2018-Apr-18 05:30N 47°16' E 033°57'2 4.6
2018-Apr-18 04:58N 47°13' E 033°55'2 4.5
2018-Apr-18 04:29N 47°12' E 033°53'2 4.4
2018-Apr-18 04:00N 47°10' E 033°52'2 4.6
2018-Apr-18 03:30N 47°08' E 033°50'2 3.9
2018-Apr-18 03:00N 47°06' E 033°48'2 4.2
2018-Apr-18 02:25N 47°04' E 033°46'2 4.4
2018-Apr-18 01:58N 47°03' E 033°44'57 3.0
2018-Apr-17 06:37N 46°33' E 032°33'0 4.1
2018-Apr-17 06:30N 46°33' E 032°32'  
Track history (hours):
 
Tides and Currents Weather Stations Pressure Air Temp Water Temp Dewpoint Dewpoint Depression Visibility Wind Speed Wind Dir Waves Ship Positions

Nibulon 1

Last reported at 2018-Apr-23 16:59 UTC. Time now 2018-Apr-24 10:42 UTC.
Position N 47°31' E 034°48'.

Length 38 m; draft 2.6 m.

Type: Tug. MMSI: 272641000.

Date/timePositionNaut miles runAvg speedWind from/ knotsBaromVisibWave heightAir tempDewpointWater temp
2018-Apr-23 16:59N 47°31' E 034°48'2 3.9
2018-Apr-23 16:29N 47°32' E 034°50'7 3.7
2018-Apr-23 14:35N 47°34' E 035°00'0 4.1
2018-Apr-23 14:30N 47°34' E 035°01'2 3.7
2018-Apr-23 14:00N 47°36' E 035°03'2 4.1
2018-Apr-23 13:30N 47°37' E 035°04'2 4.7
2018-Apr-23 13:00N 47°39' E 035°07'2 4.9
2018-Apr-23 12:30N 47°41' E 035°08'2 4.5
2018-Apr-23 12:00N 47°43' E 035°09'2 4.2
2018-Apr-23 11:30N 47°45' E 035°10'2 4.2
2018-Apr-23 11:00N 47°47' E 035°10'1 1.7
2018-Apr-23 10:30N 47°48' E 035°09'0 0.8
2018-Apr-23 10:00N 47°49' E 035°09'3 5.1
2018-Apr-23 09:30N 47°50' E 035°06'2 3.6
2018-Apr-23 09:00N 47°52' E 035°05'0 0.1
2018-Apr-23 08:30N 47°52' E 035°05'1 1.3
2018-Apr-23 08:00N 47°52' E 035°06'0 0.7
2018-Apr-23 07:30N 47°53' E 035°06'1 2.0
2018-Apr-23 07:00N 47°52' E 035°05'0 0.4
2018-Apr-23 06:30N 47°52' E 035°05'0 0.0
2018-Apr-23 06:00N 47°52' E 035°05'0 0.0
2018-Apr-23 05:30N 47°52' E 035°05'2 3.3
2018-Apr-23 04:59N 47°50' E 035°06'1 1.4
2018-Apr-23 04:30N 47°50' E 035°07'2 3.2
2018-Apr-23 04:00N 47°49' E 035°09'0 0.2
2018-Apr-23 03:30N 47°49' E 035°09'2 4.7
2018-Apr-23 03:00N 47°50' E 035°06'2 3.3
2018-Apr-23 02:30N 47°52' E 035°05'0 0.1
2018-Apr-23 02:00N 47°52' E 035°06'0 0.7
2018-Apr-23 01:30N 47°52' E 035°06'1 2.2
2018-Apr-23 01:00N 47°53' E 035°06'1 2.5
2018-Apr-23 00:30N 47°54' E 035°07'2 4.1
2018-Apr-23 00:00N 47°56' E 035°07'2 4.0
2018-Apr-22 23:30N 47°58' E 035°07'2 4.0
2018-Apr-22 22:56N 48°01' E 035°08'  
2018-Apr-19 13:06N 48°04' E 035°05'0 4.2
2018-Apr-19 13:00N 48°03' E 035°06'2 4.1
2018-Apr-19 12:31N 48°02' E 035°08'2 4.3
2018-Apr-19 12:00N 47°60' E 035°08'2 4.5
2018-Apr-19 11:30N 47°58' E 035°07'2 4.4
2018-Apr-19 11:00N 47°55' E 035°07'2 4.3
2018-Apr-19 10:31N 47°53' E 035°06'1 1.0
2018-Apr-19 10:01N 47°53' E 035°06'1 1.7
2018-Apr-19 09:31N 47°52' E 035°06'0 0.6
2018-Apr-19 08:57N 47°52' E 035°05'0 0.4
2018-Apr-19 08:30N 47°52' E 035°05'2 4.5
2018-Apr-19 08:00N 47°50' E 035°07'2 4.6
2018-Apr-19 07:30N 47°48' E 035°10'0 0.0
2018-Apr-19 07:00N 47°48' E 035°10'0 0.0
2018-Apr-19 06:30N 47°48' E 035°10'0 0.0
2018-Apr-19 06:00N 47°48' E 035°10'0 0.0
2018-Apr-19 05:30N 47°48' E 035°10'0 0.0
2018-Apr-19 05:00N 47°48' E 035°10'0 0.0
2018-Apr-19 04:30N 47°48' E 035°10'0 0.5
2018-Apr-19 04:00N 47°48' E 035°10'0 0.6
2018-Apr-19 03:30N 47°48' E 035°10'1 2.4
2018-Apr-19 03:00N 47°47' E 035°09'2 3.9
2018-Apr-19 02:30N 47°45' E 035°10'2 4.1
2018-Apr-19 02:00N 47°43' E 035°09'2 3.8
2018-Apr-19 01:30N 47°41' E 035°08'2 3.5
2018-Apr-19 01:00N 47°40' E 035°07'2 3.2
2018-Apr-19 00:30N 47°38' E 035°06'2 4.0
2018-Apr-19 00:00N 47°37' E 035°03'2 4.2
2018-Apr-18 23:30N 47°35' E 035°02'7 4.3
2018-Apr-18 21:55N 47°33' E 034°53'2 3.9
2018-Apr-18 21:30N 47°32' E 034°51'2 4.4
2018-Apr-18 21:00N 47°31' E 034°48'2 4.5
2018-Apr-18 20:28N 47°31' E 034°44'2 4.7
2018-Apr-18 19:59N 47°32' E 034°41'3 4.6
2018-Apr-18 19:14N 47°34' E 034°36'1 4.6
2018-Apr-18 19:00N 47°34' E 034°35'2 4.6
2018-Apr-18 18:29N 47°35' E 034°31'2 4.3
2018-Apr-18 18:00N 47°34' E 034°28'3 4.4
2018-Apr-18 17:20N 47°33' E 034°25'25 2.1
2018-Apr-18 05:43N 47°17' E 033°57'1 4.6
2018-Apr-18 05:30N 47°16' E 033°57'2 4.6
2018-Apr-18 04:58N 47°13' E 033°55'2 4.5
2018-Apr-18 04:29N 47°12' E 033°53'2 4.4
2018-Apr-18 04:00N 47°10' E 033°52'2 4.6
2018-Apr-18 03:30N 47°08' E 033°50'2 3.9
2018-Apr-18 03:00N 47°06' E 033°48'2 4.2
2018-Apr-18 02:25N 47°04' E 033°46'2 4.4
2018-Apr-18 01:58N 47°03' E 033°44'57 3.0
2018-Apr-17 06:37N 46°33' E 032°33'0 4.1
2018-Apr-17 06:30N 46°33' E 032°32'  

Dump ship's entire track history